Date,TemperatureHighF,TemperatureAvgF,TemperatureLowF,DewpointHighF,DewpointAvgF,DewpointLowF,HumidityHigh,HumidityAvg,HumidityLow,PressureMaxIn,PressureMinIn,WindSpeedMaxMPH,WindSpeedAvgMPH,GustSpeedMaxMPH,PrecipitationSumIn
2013-1-4,43,26,14,-100,-100,-100,0,0,100,0.00,40.00,0,-999,0,0.00
2013-1-5,42,27,14,-100,-100,-100,0,0,100,0.00,40.00,0,-999,0,0.00
2013-1-6,42,28,18,-100,-100,-100,0,0,100,0.00,40.00,0,-999,0,0.00
2013-1-7,47,31,20,-100,-100,-100,0,0,100,0.00,40.00,0,-999,0,0.00
2013-1-8,50,29,16,-100,-100,-100,0,0,100,0.00,40.00,0,-999,0,0.00
2013-1-9,55,37,25,-100,-100,-100,0,0,100,0.00,40.00,0,-999,0,0.00
2013-1-10,38,36,35,-100,-100,-100,0,0,100,0.00,40.00,0,-999,0,0.00
2013-1-11,36,32,20,-100,-100,-100,0,0,100,0.00,40.00,0,-999,0,0.00
2013-1-12,20,13,7,-100,-100,-100,0,0,100,0.00,40.00,0,-999,0,0.00
2013-1-13,20,8,1,-100,-100,-100,0,0,100,0.00,40.00,0,-999,0,0.00
2013-1-14,29,13,1,-100,-100,-100,0,0,100,0.00,40.00,0,-999,0,0.00
2013-1-15,32,22,6,-100,-100,-100,0,0,100,0.00,40.00,0,-999,0,0.00
2013-1-16,52,38,25,-100,-100,-100,0,0,100,0.00,40.00,0,-999,0,0.00
2013-1-17,55,36,23,-100,-100,-100,0,0,100,0.00,40.00,0,-999,0,0.00
2013-1-18,59,39,29,-100,-100,-100,0,0,100,0.00,40.00,0,-999,0,0.00
2013-1-19,57,40,28,-100,-100,-100,0,0,100,0.00,40.00,0,-999,0,0.00
2013-1-20,33,25,19,-100,-100,-100,0,0,100,0.00,40.00,0,-999,0,0.00
2013-1-21,25,21,16,-100,-100,-100,0,0,100,0.00,40.00,0,-999,0,0.00
2013-1-22,36,22,10,-100,-100,-100,0,0,100,0.00,40.00,0,-999,0,0.00
2013-1-23,41,26,16,-100,-100,-100,0,0,100,0.00,40.00,0,-999,0,0.00
2013-1-24,23,16,7,-100,-100,-100,0,0,100,0.00,40.00,0,-999,0,0.00
2013-1-25,54,36,23,-100,-100,-100,0,0,100,0.00,40.00,0,-999,0,0.00
2013-1-26,55,40,30,-100,-100,-100,0,0,100,0.00,40.00,0,-999,0,0.00
2013-1-27,51,41,32,-100,-100,-100,0,0,100,0.00,40.00,0,-999,0,0.00
2013-1-28,40,33,26,-100,-100,-100,0,0,100,0.00,40.00,0,-999,0,0.00
2013-1-29,36,32,30,-100,-100,-100,0,0,100,0.00,40.00,0,-999,0,0.00
2013-1-30,31,24,18,-100,-100,-100,0,0,100,0.00,40.00,0,-999,0,0.00
2013-1-31,21,18,14,-100,-100,-100,0,0,100,0.00,40.00,0,-999,0,0.00